createdAt,value
2023-05-14T00:00:08.108Z,95806.00
2023-05-14T00:01:07.142Z,95808.00
2023-05-14T00:02:08.197Z,95810.00
2023-05-14T00:03:07.390Z,95810.00
2023-05-14T00:04:07.364Z,95808.00
2023-05-14T00:05:08.451Z,95806.00
2023-05-14T00:06:08.368Z,95806.00
2023-05-14T00:07:08.411Z,95804.00
2023-05-14T00:08:08.450Z,95804.00
2023-05-14T00:09:08.499Z,95804.00
2023-05-14T00:10:07.572Z,95804.00
2023-05-14T00:11:07.586Z,95804.00
2023-05-14T00:12:07.625Z,95802.00
2023-05-14T00:13:08.650Z,95802.00
2023-05-14T00:14:08.699Z,95802.00
2023-05-14T00:15:07.757Z,95798.00
2023-05-14T00:16:08.813Z,95798.00
2023-05-14T00:17:07.831Z,95800.00
2023-05-14T00:18:07.899Z,95798.00
2023-05-14T00:19:08.998Z,95798.00
2023-05-14T00:20:08.983Z,95798.00
2023-05-14T00:21:08.033Z,95794.00
2023-05-14T00:22:08.102Z,95796.00
2023-05-14T00:23:08.139Z,95792.00
2023-05-14T00:24:08.184Z,95792.00
2023-05-14T00:25:08.235Z,95792.00
2023-05-14T00:26:09.304Z,95794.00
2023-05-14T00:27:08.357Z,95792.00
2023-05-14T00:28:09.408Z,95792.00
2023-05-14T00:29:09.437Z,95792.00
2023-05-14T00:30:09.661Z,95794.00
2023-05-14T00:31:09.563Z,95792.00
2023-05-14T00:32:09.631Z,95792.00
2023-05-14T00:33:08.670Z,95794.00
2023-05-14T00:34:09.672Z,95796.00
2023-05-14T00:35:08.748Z,95794.00
2023-05-14T00:36:08.760Z,95792.00
2023-05-14T00:37:09.801Z,95794.00
2023-05-14T00:38:09.866Z,95794.00
2023-05-14T00:39:08.876Z,95796.00
2023-05-14T00:40:08.970Z,95794.00
2023-05-14T00:41:08.986Z,95796.00
2023-05-14T00:42:10.057Z,95796.00
2023-05-14T00:43:09.083Z,95796.00
2023-05-14T00:44:09.118Z,95796.00
2023-05-14T00:45:09.188Z,95796.00
2023-05-14T00:46:10.267Z,95794.00
2023-05-14T00:47:09.358Z,95794.00
2023-05-14T00:48:10.318Z,95792.00
2023-05-14T00:49:09.373Z,95794.00
2023-05-14T00:50:10.426Z,95792.00
2023-05-14T00:51:09.457Z,95790.00
2023-05-14T00:52:09.528Z,95790.00
2023-05-14T00:53:10.578Z,95790.00
2023-05-14T00:54:09.616Z,95792.00
2023-05-14T00:55:09.680Z,95790.00
2023-05-14T00:56:10.715Z,95790.00
2023-05-14T00:57:09.756Z,95789.00
2023-05-14T00:58:10.867Z,95789.00
2023-05-14T00:59:10.857Z,95789.00
2023-05-14T01:00:10.923Z,95790.00
2023-05-14T01:01:10.998Z,95789.00
2023-05-14T01:02:10.953Z,95789.00
2023-05-14T01:03:10.034Z,95790.00
2023-05-14T01:04:10.068Z,95790.00
2023-05-14T01:05:10.072Z,95790.00
2023-05-14T01:06:11.137Z,95790.00
2023-05-14T01:07:11.177Z,95790.00
2023-05-14T01:08:11.206Z,95787.00
2023-05-14T01:09:10.253Z,95789.00
2023-05-14T01:10:11.308Z,95789.00
2023-05-14T01:11:11.338Z,95785.00
2023-05-14T01:12:10.385Z,95783.00
2023-05-14T01:13:10.424Z,95783.00
2023-05-14T01:14:11.502Z,95785.00
2023-05-14T01:15:10.534Z,95785.00
2023-05-14T01:16:10.626Z,95783.00
2023-05-14T01:17:10.615Z,95781.00
2023-05-14T01:18:11.707Z,95783.00
2023-05-14T01:19:11.806Z,95781.00
2023-05-14T01:20:11.791Z,95783.00
2023-05-14T01:21:10.836Z,95783.00
2023-05-14T01:22:11.882Z,95783.00
2023-05-14T01:23:10.921Z,95783.00
2023-05-14T01:24:11.977Z,95777.00
2023-05-14T01:25:11.040Z,95779.00
2023-05-14T01:26:12.076Z,95777.00
2023-05-14T01:27:12.141Z,95777.00
2023-05-14T01:28:11.192Z,95775.00
2023-05-14T01:29:11.243Z,95777.00
2023-05-14T01:30:12.318Z,95775.00
2023-05-14T01:31:11.352Z,95775.00
2023-05-14T01:32:12.636Z,95775.00
2023-05-14T01:33:12.460Z,95773.00
2023-05-14T01:34:11.490Z,95775.00
2023-05-14T01:35:11.551Z,95771.00
2023-05-14T01:36:11.589Z,95771.00
2023-05-14T01:37:11.641Z,95771.00
2023-05-14T01:38:11.691Z,95771.00
2023-05-14T01:39:12.753Z,95773.00
2023-05-14T01:40:12.784Z,95773.00
2023-05-14T01:41:12.852Z,95771.00
2023-05-14T01:42:12.908Z,95771.00
2023-05-14T01:43:12.000Z,95773.00
2023-05-14T01:44:12.995Z,95771.00
2023-05-14T01:45:13.063Z,95773.00
2023-05-14T01:46:13.160Z,95773.00
2023-05-14T01:47:12.140Z,95775.00
2023-05-14T01:48:13.207Z,95777.00
2023-05-14T01:49:12.239Z,95775.00
2023-05-14T01:50:13.342Z,95775.00
2023-05-14T01:51:13.370Z,95779.00
2023-05-14T01:52:13.395Z,95779.00
2023-05-14T01:53:13.460Z,95779.00
2023-05-14T01:54:13.500Z,95775.00
2023-05-14T01:55:13.535Z,95777.00
2023-05-14T01:56:13.600Z,95775.00
2023-05-14T01:57:12.667Z,95773.00
2023-05-14T01:58:12.705Z,95771.00
2023-05-14T01:59:12.735Z,95775.00
2023-05-14T02:00:12.784Z,95771.00
2023-05-14T02:01:13.893Z,95771.00
2023-05-14T02:02:13.879Z,95771.00
2023-05-14T02:03:12.938Z,95773.00
2023-05-14T02:04:12.999Z,95773.00
2023-05-14T02:05:13.031Z,95773.00
2023-05-14T02:06:14.074Z,95769.00
2023-05-14T02:07:14.135Z,95769.00
2023-05-14T02:08:13.186Z,95769.00
2023-05-14T02:09:14.259Z,95769.00
2023-05-14T02:10:14.288Z,95767.00
2023-05-14T02:11:13.365Z,95767.00
2023-05-14T02:12:13.426Z,95765.00
2023-05-14T02:13:13.442Z,95763.00
2023-05-14T02:14:14.504Z,95759.00
2023-05-14T02:15:13.581Z,95763.00
2023-05-14T02:16:14.719Z,95761.00
2023-05-14T02:17:13.672Z,95761.00
2023-05-14T02:18:14.759Z,95761.00
2023-05-14T02:19:13.842Z,95761.00
2023-05-14T02:20:13.819Z,95761.00
2023-05-14T02:21:13.887Z,95755.00
2023-05-14T02:22:14.920Z,95763.00
2023-05-14T02:23:13.953Z,95761.00
2023-05-14T02:24:15.027Z,95757.00
2023-05-14T02:25:15.053Z,95755.00
2023-05-14T02:26:14.090Z,95757.00
2023-05-14T02:27:15.162Z,95757.00
2023-05-14T02:28:14.206Z,95757.00
2023-05-14T02:29:15.263Z,95757.00
2023-05-14T02:30:14.320Z,95757.00
2023-05-14T02:31:14.443Z,95763.00
2023-05-14T02:32:15.448Z,95759.00
2023-05-14T02:33:15.594Z,95761.00
2023-05-14T02:34:15.594Z,95765.00
2023-05-14T02:35:15.653Z,95759.00
2023-05-14T02:36:15.650Z,95765.00
2023-05-14T02:37:15.690Z,95759.00
2023-05-14T02:38:14.710Z,95759.00
2023-05-14T02:39:14.791Z,95759.00
2023-05-14T02:40:15.815Z,95757.00
2023-05-14T02:41:15.907Z,95757.00
2023-05-14T02:42:14.927Z,95755.00
2023-05-14T02:43:15.006Z,95753.00
2023-05-14T02:44:15.052Z,95751.00
2023-05-14T02:45:16.123Z,95751.00
2023-05-14T02:46:16.262Z,95749.00
2023-05-14T02:47:16.215Z,95743.00
2023-05-14T02:48:15.264Z,95747.00
2023-05-14T02:49:15.334Z,95743.00
2023-05-14T02:50:16.452Z,95743.00
2023-05-14T02:51:16.505Z,95740.00
2023-05-14T02:52:15.529Z,95738.00
2023-05-14T02:53:15.540Z,95736.00
2023-05-14T02:54:15.624Z,95736.00
2023-05-14T02:55:15.667Z,95732.00
2023-05-14T02:56:16.719Z,95736.00
2023-05-14T02:57:15.769Z,95734.00
2023-05-14T02:58:16.819Z,95736.00
2023-05-14T02:59:16.897Z,95734.00
2023-05-14T03:00:15.927Z,95734.00
2023-05-14T03:01:17.009Z,95732.00
2023-05-14T03:02:16.053Z,95734.00
2023-05-14T03:03:17.101Z,95732.00
2023-05-14T03:04:16.140Z,95732.00
2023-05-14T03:05:16.212Z,95730.00
2023-05-14T03:06:17.275Z,95730.00
2023-05-14T03:07:16.306Z,95728.00
2023-05-14T03:08:17.359Z,95730.00
2023-05-14T03:09:17.418Z,95728.00
2023-05-14T03:10:17.464Z,95730.00
2023-05-14T03:11:17.512Z,95728.00
2023-05-14T03:12:16.564Z,95728.00
2023-05-14T03:13:16.645Z,95728.00
2023-05-14T03:14:17.686Z,95726.00
2023-05-14T03:15:17.739Z,95726.00
2023-05-14T03:16:17.806Z,95726.00
2023-05-14T03:17:17.831Z,95726.00
2023-05-14T03:18:16.894Z,95722.00
2023-05-14T03:19:17.022Z,95722.00
2023-05-14T03:20:17.024Z,95722.00
2023-05-14T03:21:18.071Z,95722.00
2023-05-14T03:22:18.152Z,95722.00
2023-05-14T03:23:18.179Z,95722.00
2023-05-14T03:24:18.229Z,95724.00
2023-05-14T03:25:18.303Z,95724.00
2023-05-14T03:26:18.345Z,95726.00
2023-05-14T03:27:18.406Z,95728.00
2023-05-14T03:28:18.449Z,95728.00
2023-05-14T03:29:18.506Z,95728.00
2023-05-14T03:30:17.558Z,95730.00
2023-05-14T03:31:17.716Z,95730.00
2023-05-14T03:32:17.650Z,95732.00
2023-05-14T03:33:17.664Z,95728.00
2023-05-14T03:34:18.705Z,95726.00
2023-05-14T03:35:18.748Z,95726.00
2023-05-14T03:36:18.768Z,95730.00
2023-05-14T03:37:18.837Z,95726.00
2023-05-14T03:38:18.903Z,95730.00
2023-05-14T03:39:18.897Z,95730.00
2023-05-14T03:40:18.955Z,95728.00
2023-05-14T03:41:18.015Z,95728.00
2023-05-14T03:42:18.068Z,95728.00
2023-05-14T03:43:19.130Z,95732.00
2023-05-14T03:44:19.169Z,95730.00
2023-05-14T03:45:18.215Z,95732.00
2023-05-14T03:46:19.245Z,95728.00
2023-05-14T03:47:19.303Z,95734.00
2023-05-14T03:48:19.505Z,95732.00
2023-05-14T03:49:19.421Z,95736.00
2023-05-14T03:50:19.486Z,95736.00
2023-05-14T03:51:18.526Z,95738.00
2023-05-14T03:52:18.632Z,95742.00
2023-05-14T03:53:18.670Z,95742.00
2023-05-14T03:54:19.705Z,95742.00
2023-05-14T03:55:18.729Z,95740.00
2023-05-14T03:56:19.759Z,95740.00
2023-05-14T03:57:18.788Z,95740.00
2023-05-14T03:58:18.826Z,95740.00
2023-05-14T03:59:18.894Z,95742.00
2023-05-14T04:00:18.943Z,95742.00
2023-05-14T04:01:19.013Z,95743.00
2023-05-14T04:02:19.127Z,95745.00
2023-05-14T04:03:20.213Z,95745.00
2023-05-14T04:04:20.336Z,95745.00
2023-05-14T04:05:19.231Z,95747.00
2023-05-14T04:06:20.300Z,95749.00
2023-05-14T04:07:20.313Z,95749.00
2023-05-14T04:08:20.360Z,95747.00
2023-05-14T04:09:20.397Z,95753.00
2023-05-14T04:10:19.451Z,95751.00
2023-05-14T04:11:20.482Z,95751.00
2023-05-14T04:12:19.511Z,95753.00
2023-05-14T04:13:20.536Z,95751.00
2023-05-14T04:14:19.585Z,95753.00
2023-05-14T04:15:20.631Z,95751.00
2023-05-14T04:16:19.683Z,95751.00
2023-05-14T04:17:20.738Z,95753.00
2023-05-14T04:18:20.804Z,95751.00
2023-05-14T04:19:19.891Z,95751.00
2023-05-14T04:20:19.895Z,95751.00
2023-05-14T04:21:19.917Z,95753.00
2023-05-14T04:22:20.945Z,95753.00
2023-05-14T04:23:20.980Z,95753.00
2023-05-14T04:24:20.033Z,95753.00
2023-05-14T04:25:20.049Z,95753.00
2023-05-14T04:26:21.133Z,95753.00
2023-05-14T04:27:20.153Z,95753.00
2023-05-14T04:28:20.211Z,95751.00
2023-05-14T04:29:21.262Z,95751.00
2023-05-14T04:30:20.317Z,95751.00
2023-05-14T04:31:21.402Z,95749.00
2023-05-14T04:32:20.430Z,95749.00
2023-05-14T04:33:21.475Z,95749.00
2023-05-14T04:34:21.514Z,95745.00
2023-05-14T04:35:23.366Z,95743.00
2023-05-14T04:36:21.598Z,95743.00
2023-05-14T04:37:21.583Z,95742.00
2023-05-14T04:38:21.544Z,95742.00
2023-05-14T04:39:21.551Z,95740.00
2023-05-14T04:40:21.630Z,95740.00
2023-05-14T04:41:21.539Z,95740.00
2023-05-14T04:42:21.543Z,95742.00
2023-05-14T04:43:21.562Z,95743.00
2023-05-14T04:44:21.515Z,95742.00
2023-05-14T04:45:20.505Z,95743.00
2023-05-14T04:46:20.653Z,95743.00
2023-05-14T04:47:20.528Z,95742.00
2023-05-14T04:48:20.493Z,95745.00
2023-05-14T04:49:20.496Z,95742.00
2023-05-14T04:50:21.704Z,95743.00
2023-05-14T04:51:21.479Z,95743.00
2023-05-14T04:52:21.465Z,95743.00
2023-05-14T04:53:20.461Z,95738.00
2023-05-14T04:54:21.520Z,95738.00
2023-05-14T04:55:20.438Z,95740.00
2023-05-14T04:56:21.428Z,95738.00
2023-05-14T04:57:21.454Z,95736.00
2023-05-14T04:58:21.530Z,95736.00
2023-05-14T04:59:21.553Z,95738.00
2023-05-14T05:00:22.112Z,95738.00
2023-05-14T05:01:21.719Z,95738.00
2023-05-14T05:02:21.720Z,95738.00
2023-05-14T05:03:21.868Z,95738.00
2023-05-14T05:04:21.840Z,95736.00
2023-05-14T05:05:21.891Z,95736.00
2023-05-14T05:06:21.962Z,95738.00
2023-05-14T05:07:20.974Z,95738.00
2023-05-14T05:08:22.035Z,95740.00
2023-05-14T05:09:21.100Z,95738.00
2023-05-14T05:10:22.370Z,95740.00
2023-05-14T05:11:21.196Z,95740.00
2023-05-14T05:12:21.235Z,95740.00
2023-05-14T05:13:21.301Z,95743.00
2023-05-14T05:14:21.367Z,95743.00
2023-05-14T05:15:23.667Z,95745.00
2023-05-14T05:16:21.503Z,95743.00
2023-05-14T05:17:21.421Z,95745.00
2023-05-14T05:18:22.387Z,95747.00
2023-05-14T05:19:29.157Z,95747.00
2023-05-14T05:20:22.624Z,95747.00
2023-05-14T05:21:22.402Z,95749.00
2023-05-14T05:22:22.381Z,95749.00
2023-05-14T05:23:22.358Z,95749.00
2023-05-14T05:24:22.341Z,95749.00
2023-05-14T05:25:22.345Z,95747.00
2023-05-14T05:26:22.364Z,95747.00
2023-05-14T05:27:21.331Z,95745.00
2023-05-14T05:28:22.330Z,95743.00
2023-05-14T05:29:22.320Z,95747.00
2023-05-14T05:30:22.494Z,95742.00
2023-05-14T05:31:22.364Z,95745.00
2023-05-14T05:32:21.362Z,95745.00
2023-05-14T05:33:22.285Z,95747.00
2023-05-14T05:34:22.296Z,95749.00
2023-05-14T05:35:22.254Z,95751.00
2023-05-14T05:36:22.264Z,95753.00
2023-05-14T05:37:21.301Z,95755.00
2023-05-14T05:38:21.370Z,95755.00
2023-05-14T05:39:21.413Z,95753.00
2023-05-14T05:40:22.597Z,95755.00
2023-05-14T05:41:21.579Z,95751.00
2023-05-14T05:42:22.671Z,95749.00
2023-05-14T05:43:22.652Z,95749.00
2023-05-14T05:44:22.738Z,95745.00
2023-05-14T05:45:21.771Z,95745.00
2023-05-14T05:46:22.903Z,95742.00
2023-05-14T05:47:22.940Z,95742.00
2023-05-14T05:48:21.955Z,95736.00
2023-05-14T05:49:23.028Z,95732.00
2023-05-14T05:50:23.299Z,95734.00
2023-05-14T05:51:22.171Z,95732.00
2023-05-14T05:52:23.224Z,95732.00
2023-05-14T05:53:23.275Z,95734.00
2023-05-14T05:54:22.342Z,95732.00
2023-05-14T05:55:22.410Z,95732.00
2023-05-14T05:56:22.462Z,95728.00
2023-05-14T05:57:25.048Z,95726.00
2023-05-14T05:58:23.514Z,95724.00
2023-05-14T05:59:23.508Z,95720.00
2023-05-14T06:00:22.676Z,95714.00
2023-05-14T06:01:22.480Z,95712.00
2023-05-14T06:02:23.527Z,95710.00
2023-05-14T06:03:23.523Z,95708.00
2023-05-14T06:04:23.482Z,95706.00
2023-05-14T06:05:23.542Z,95706.00
2023-05-14T06:06:22.467Z,95704.00
2023-05-14T06:07:22.451Z,95706.00
2023-05-14T06:08:23.454Z,95704.00
2023-05-14T06:09:23.430Z,95706.00
2023-05-14T06:10:23.619Z,95706.00
2023-05-14T06:11:23.418Z,95704.00
2023-05-14T06:12:23.418Z,95704.00
2023-05-14T06:13:23.422Z,95704.00
2023-05-14T06:14:22.446Z,95704.00
2023-05-14T06:15:22.399Z,95712.00
2023-05-14T06:16:22.422Z,95710.00
2023-05-14T06:17:23.407Z,95710.00
2023-05-14T06:18:22.407Z,95706.00
2023-05-14T06:19:23.380Z,95706.00
2023-05-14T06:20:23.602Z,95700.00
2023-05-14T06:21:22.374Z,95704.00
2023-05-14T06:22:22.342Z,95704.00
2023-05-14T06:23:23.355Z,95702.00
2023-05-14T06:24:22.378Z,95700.00
2023-05-14T06:25:23.455Z,95704.00
2023-05-14T06:26:23.536Z,95700.00
2023-05-14T06:27:23.564Z,95702.00
2023-05-14T06:28:23.637Z,95702.00
2023-05-14T06:29:22.671Z,95702.00
2023-05-14T06:30:24.015Z,95702.00
2023-05-14T06:31:23.829Z,95702.00
2023-05-14T06:32:22.967Z,95702.00
2023-05-14T06:33:23.911Z,95702.00
2023-05-14T06:34:22.990Z,95704.00
2023-05-14T06:35:23.032Z,95704.00
2023-05-14T06:36:24.099Z,95704.00
2023-05-14T06:37:23.178Z,95704.00
2023-05-14T06:38:24.245Z,95702.00
2023-05-14T06:39:24.289Z,95702.00
2023-05-14T06:40:24.494Z,95704.00
2023-05-14T06:41:24.408Z,95702.00
2023-05-14T06:42:24.470Z,95702.00
2023-05-14T06:43:24.521Z,95702.00
2023-05-14T06:44:24.584Z,95702.00
2023-05-14T06:45:24.633Z,95702.00
2023-05-14T06:46:23.689Z,95702.00
2023-05-14T06:47:24.811Z,95700.00
2023-05-14T06:48:23.854Z,95700.00
2023-05-14T06:49:23.854Z,95700.00
2023-05-14T06:50:25.216Z,95700.00
2023-05-14T06:51:23.965Z,95698.00
2023-05-14T06:52:24.015Z,95698.00
2023-05-14T06:53:25.045Z,95698.00
2023-05-14T06:54:25.107Z,95696.00
2023-05-14T06:55:24.175Z,95694.00
2023-05-14T06:56:25.244Z,95694.00
2023-05-14T06:57:25.246Z,95694.00
2023-05-14T06:58:25.284Z,95696.00
2023-05-14T06:59:25.358Z,95692.00
2023-05-14T07:00:25.942Z,95696.00
2023-05-14T07:01:24.453Z,95696.00
2023-05-14T07:02:25.520Z,95696.00
2023-05-14T07:03:25.552Z,95696.00
2023-05-14T07:04:24.606Z,95694.00
2023-05-14T07:05:24.621Z,95692.00
2023-05-14T07:06:24.693Z,95696.00
2023-05-14T07:07:25.757Z,95694.00
2023-05-14T07:08:25.779Z,95692.00
2023-05-14T07:09:25.852Z,95692.00
2023-05-14T07:10:25.108Z,95690.00
2023-05-14T07:11:25.972Z,95688.00
2023-05-14T07:12:26.044Z,95687.00
2023-05-14T07:13:27.689Z,95687.00
2023-05-14T07:14:26.060Z,95688.00
2023-05-14T07:15:26.087Z,95685.00
2023-05-14T07:16:25.138Z,95687.00
2023-05-14T07:17:25.265Z,95683.00
2023-05-14T07:18:25.085Z,95685.00
2023-05-14T07:19:26.031Z,95681.00
2023-05-14T07:20:26.289Z,95681.00
2023-05-14T07:21:26.051Z,95681.00
2023-05-14T07:22:26.041Z,95683.00
2023-05-14T07:23:24.996Z,95683.00
2023-05-14T07:24:25.004Z,95681.00
2023-05-14T07:25:24.990Z,95681.00
2023-05-14T07:26:24.987Z,95679.00
2023-05-14T07:27:25.998Z,95677.00
2023-05-14T07:28:24.977Z,95677.00
2023-05-14T07:29:24.949Z,95677.00
2023-05-14T07:30:26.318Z,95671.00
2023-05-14T07:31:26.051Z,95671.00
2023-05-14T07:32:25.981Z,95667.00
2023-05-14T07:33:25.946Z,95667.00
2023-05-14T07:34:25.938Z,95667.00
2023-05-14T07:35:25.914Z,95665.00
2023-05-14T07:36:25.953Z,95665.00
2023-05-14T07:37:24.922Z,95655.00
2023-05-14T07:38:25.937Z,95657.00
2023-05-14T07:39:24.947Z,95657.00
2023-05-14T07:40:25.189Z,95655.00
2023-05-14T07:41:24.900Z,95655.00
2023-05-14T07:42:35.136Z,95665.00
2023-05-14T07:43:25.882Z,95665.00
2023-05-14T07:44:25.863Z,95657.00
2023-05-14T07:45:24.889Z,95657.00
2023-05-14T07:46:24.859Z,95657.00
2023-05-14T07:47:24.980Z,95653.00
2023-05-14T07:48:24.894Z,95655.00
2023-05-14T07:49:24.826Z,95653.00
2023-05-14T07:50:26.045Z,95653.00
2023-05-14T07:51:25.830Z,95651.00
2023-05-14T07:52:25.842Z,95651.00
2023-05-14T07:53:24.795Z,95649.00
2023-05-14T07:54:25.870Z,95647.00
2023-05-14T07:55:24.888Z,95643.00
2023-05-14T07:56:24.913Z,95642.00
2023-05-14T07:57:24.952Z,95640.00
2023-05-14T07:58:25.978Z,95640.00
2023-05-14T07:59:25.017Z,95636.00
2023-05-14T08:00:25.329Z,95640.00
2023-05-14T08:01:26.077Z,95638.00
2023-05-14T08:02:25.171Z,95634.00
2023-05-14T08:03:26.234Z,95634.00
2023-05-14T08:04:25.286Z,95636.00
2023-05-14T08:05:26.915Z,95630.00
2023-05-14T08:06:26.321Z,95630.00
2023-05-14T08:07:25.364Z,95632.00
2023-05-14T08:08:25.422Z,95632.00
2023-05-14T08:09:25.473Z,95630.00
2023-05-14T08:10:25.812Z,95630.00
2023-05-14T08:11:26.518Z,95626.00
2023-05-14T08:12:26.541Z,95624.00
2023-05-14T08:13:26.596Z,95626.00
2023-05-14T08:14:26.649Z,95622.00
2023-05-14T08:15:27.874Z,95622.00
2023-05-14T08:16:26.779Z,95620.00
2023-05-14T08:17:26.874Z,95618.00
2023-05-14T08:18:25.897Z,95616.00
2023-05-14T08:19:26.883Z,95620.00
2023-05-14T08:20:27.213Z,95618.00
2023-05-14T08:21:25.979Z,95618.00
2023-05-14T08:22:26.029Z,95616.00
2023-05-14T08:23:26.092Z,95616.00
2023-05-14T08:24:27.140Z,95614.00
2023-05-14T08:25:27.205Z,95612.00
2023-05-14T08:26:27.222Z,95612.00
2023-05-14T08:27:26.295Z,95612.00
2023-05-14T08:28:27.344Z,95610.00
2023-05-14T08:29:27.390Z,95608.00
2023-05-14T08:30:26.820Z,95606.00
2023-05-14T08:31:27.569Z,95604.00
2023-05-14T08:32:27.584Z,95604.00
2023-05-14T08:33:27.597Z,95604.00
2023-05-14T08:34:27.654Z,95600.00
2023-05-14T08:35:27.704Z,95606.00
2023-05-14T08:36:26.788Z,95600.00
2023-05-14T08:37:27.851Z,95598.00
2023-05-14T08:38:27.911Z,95602.00
2023-05-14T08:39:27.968Z,95600.00
2023-05-14T08:40:27.196Z,95600.00
2023-05-14T08:41:27.127Z,95600.00
2023-05-14T08:42:27.145Z,95596.00
2023-05-14T08:43:27.219Z,95596.00
2023-05-14T08:44:27.269Z,95592.00
2023-05-14T08:45:27.327Z,95596.00
2023-05-14T08:46:27.369Z,95594.00
2023-05-14T08:47:28.431Z,95592.00
2023-05-14T08:48:27.584Z,95590.00
2023-05-14T08:49:27.498Z,95590.00
2023-05-14T08:50:28.957Z,95590.00
2023-05-14T08:51:28.619Z,95590.00
2023-05-14T08:52:27.653Z,95587.00
2023-05-14T08:53:27.739Z,95587.00
2023-05-14T08:54:27.765Z,95585.00
2023-05-14T08:55:28.812Z,95587.00
2023-05-14T08:56:27.861Z,95585.00
2023-05-14T08:57:27.922Z,95583.00
2023-05-14T08:58:28.952Z,95581.00
2023-05-14T08:59:27.985Z,95583.00
2023-05-14T09:00:29.039Z,95585.00
2023-05-14T09:01:29.132Z,95583.00
2023-05-14T09:02:29.192Z,95583.00
2023-05-14T09:03:28.250Z,95583.00
2023-05-14T09:04:29.286Z,95585.00
2023-05-14T09:05:28.338Z,95583.00
2023-05-14T09:06:29.423Z,95581.00
2023-05-14T09:07:29.492Z,95585.00
2023-05-14T09:08:28.569Z,95587.00
2023-05-14T09:09:28.638Z,95583.00
2023-05-14T09:10:28.662Z,95583.00
2023-05-14T09:11:29.723Z,95585.00
2023-05-14T09:12:28.792Z,95581.00
2023-05-14T09:13:29.883Z,95581.00
2023-05-14T09:14:29.924Z,95583.00
2023-05-14T09:15:30.021Z,95581.00
2023-05-14T09:16:29.064Z,95579.00
2023-05-14T09:17:29.152Z,95577.00
2023-05-14T09:18:30.183Z,95581.00
2023-05-14T09:19:30.253Z,95581.00
2023-05-14T09:20:30.292Z,95579.00
2023-05-14T09:21:31.606Z,95581.00
2023-05-14T09:22:30.356Z,95581.00
2023-05-14T09:23:29.364Z,95581.00
2023-05-14T09:24:29.344Z,95581.00
2023-05-14T09:25:29.316Z,95581.00
2023-05-14T09:26:29.343Z,95583.00
2023-05-14T09:27:30.326Z,95585.00
2023-05-14T09:28:30.317Z,95583.00
2023-05-14T09:29:30.325Z,95581.00
2023-05-14T09:30:29.298Z,95579.00
2023-05-14T09:31:30.308Z,95577.00
2023-05-14T09:32:30.307Z,95581.00
2023-05-14T09:33:30.287Z,95579.00
2023-05-14T09:34:29.262Z,95579.00
2023-05-14T09:35:29.262Z,95577.00
2023-05-14T09:36:29.264Z,95579.00
2023-05-14T09:37:30.262Z,95577.00
2023-05-14T09:38:30.248Z,95577.00
2023-05-14T09:39:30.269Z,95577.00
2023-05-14T09:40:29.493Z,95579.00
2023-05-14T09:41:29.218Z,95577.00
2023-05-14T09:42:30.225Z,95575.00
2023-05-14T09:43:30.230Z,95575.00
2023-05-14T09:44:30.233Z,95577.00
2023-05-14T09:45:30.321Z,95575.00
2023-05-14T09:46:30.356Z,95575.00
2023-05-14T09:47:30.539Z,95577.00
2023-05-14T09:48:30.466Z,95575.00
2023-05-14T09:49:30.506Z,95573.00
2023-05-14T09:50:29.580Z,95575.00
2023-05-14T09:51:30.627Z,95573.00
2023-05-14T09:52:29.691Z,95573.00
2023-05-14T09:53:29.700Z,95571.00
2023-05-14T09:54:30.745Z,95569.00
2023-05-14T09:55:30.808Z,95567.00
2023-05-14T09:56:29.870Z,95565.00
2023-05-14T09:57:30.941Z,95565.00
2023-05-14T09:58:29.999Z,95563.00
2023-05-14T09:59:30.050Z,95561.00
2023-05-14T10:00:30.128Z,95559.00
2023-05-14T10:01:30.310Z,95557.00
2023-05-14T10:02:31.255Z,95555.00
2023-05-14T10:03:31.292Z,95553.00
2023-05-14T10:04:31.362Z,95549.00
2023-05-14T10:05:31.338Z,95553.00
2023-05-14T10:06:30.382Z,95549.00
2023-05-14T10:07:30.491Z,95549.00
2023-05-14T10:08:30.511Z,95549.00
2023-05-14T10:09:31.567Z,95547.00
2023-05-14T10:10:30.636Z,95547.00
2023-05-14T10:11:30.684Z,95547.00
2023-05-14T10:12:30.774Z,95547.00
2023-05-14T10:13:30.844Z,95545.00
2023-05-14T10:14:31.885Z,95543.00
2023-05-14T10:15:30.911Z,95541.00
2023-05-14T10:16:32.030Z,95540.00
2023-05-14T10:17:31.131Z,95538.00
2023-05-14T10:18:31.156Z,95538.00
2023-05-14T10:19:31.147Z,95534.00
2023-05-14T10:20:32.227Z,95534.00
2023-05-14T10:21:32.279Z,95532.00
2023-05-14T10:22:32.310Z,95532.00
2023-05-14T10:23:32.357Z,95530.00
2023-05-14T10:24:32.506Z,95528.00
2023-05-14T10:25:32.482Z,95530.00
2023-05-14T10:26:32.542Z,95528.00
2023-05-14T10:27:32.575Z,95528.00
2023-05-14T10:28:31.652Z,95526.00
2023-05-14T10:29:32.771Z,95524.00
2023-05-14T10:30:31.767Z,95526.00
2023-05-14T10:31:32.919Z,95522.00
2023-05-14T10:32:32.915Z,95522.00
2023-05-14T10:33:31.915Z,95522.00
2023-05-14T10:34:32.024Z,95518.00
2023-05-14T10:35:33.038Z,95518.00
2023-05-14T10:36:33.085Z,95520.00
2023-05-14T10:37:33.161Z,95518.00
2023-05-14T10:38:32.229Z,95516.00
2023-05-14T10:39:33.261Z,95516.00
2023-05-14T10:40:33.320Z,95516.00
2023-05-14T10:41:33.380Z,95518.00
2023-05-14T10:42:33.424Z,95516.00
2023-05-14T10:43:32.489Z,95516.00
2023-05-14T10:44:32.559Z,95516.00
2023-05-14T10:45:32.580Z,95514.00
2023-05-14T10:46:32.694Z,95512.00
2023-05-14T10:47:32.716Z,95516.00
2023-05-14T10:48:32.783Z,95510.00
2023-05-14T10:49:43.007Z,95508.00
2023-05-14T10:50:33.803Z,95510.00
2023-05-14T10:51:33.833Z,95508.00
2023-05-14T10:52:32.785Z,95506.00
2023-05-14T10:53:32.800Z,95508.00
2023-05-14T10:54:33.796Z,95504.00
2023-05-14T10:55:33.746Z,95502.00
2023-05-14T10:56:32.778Z,95500.00
2023-05-14T10:57:33.733Z,95500.00
2023-05-14T10:58:33.762Z,95500.00
2023-05-14T10:59:32.718Z,95496.00
2023-05-14T11:00:33.707Z,95496.00
2023-05-14T11:01:33.764Z,95494.00
2023-05-14T11:02:32.742Z,95494.00
2023-05-14T11:03:32.757Z,95494.00
2023-05-14T11:04:32.716Z,95491.00
2023-05-14T11:05:33.689Z,95494.00
2023-05-14T11:06:32.680Z,95496.00
2023-05-14T11:07:32.667Z,95494.00
2023-05-14T11:08:33.691Z,95494.00
2023-05-14T11:09:33.658Z,95491.00
2023-05-14T11:10:33.653Z,95491.00
2023-05-14T11:11:32.645Z,95489.00
2023-05-14T11:12:32.645Z,95487.00
2023-05-14T11:13:32.672Z,95483.00
2023-05-14T11:14:32.615Z,95485.00
2023-05-14T11:15:33.623Z,95487.00
2023-05-14T11:16:33.671Z,95485.00
2023-05-14T11:17:32.641Z,95477.00
2023-05-14T11:18:33.702Z,95471.00
2023-05-14T11:19:32.657Z,95471.00
2023-05-14T11:20:33.701Z,95471.00
2023-05-14T11:21:32.887Z,95469.00
2023-05-14T11:22:32.748Z,95467.00
2023-05-14T11:23:32.835Z,95465.00
2023-05-14T11:24:32.864Z,95461.00
2023-05-14T11:25:32.882Z,95461.00
2023-05-14T11:26:34.034Z,95461.00
2023-05-14T11:27:34.014Z,95459.00
2023-05-14T11:28:34.051Z,95459.00
2023-05-14T11:29:34.086Z,95459.00
2023-05-14T11:30:33.117Z,95455.00
2023-05-14T11:31:34.205Z,95457.00
2023-05-14T11:32:33.255Z,95457.00
2023-05-14T11:33:33.244Z,95453.00
2023-05-14T11:34:33.297Z,95451.00
2023-05-14T11:35:34.355Z,95449.00
2023-05-14T11:36:34.421Z,95447.00
2023-05-14T11:37:34.442Z,95446.00
2023-05-14T11:38:34.483Z,95449.00
2023-05-14T11:39:33.527Z,95446.00
2023-05-14T11:40:34.547Z,95442.00
2023-05-14T11:41:33.594Z,95442.00
2023-05-14T11:42:33.632Z,95440.00
2023-05-14T11:43:33.712Z,95436.00
2023-05-14T11:44:34.738Z,95438.00